KBQP

Morehouse Memorial Airport

Bastrop, Louisiana, USA
METAR KBQP 210355Z AUTO 19006KT 10SM BKN050 OVC070 23/23 A2999 RMK AO2 LTG DSNT E THRU SW T02320229
Observed Flight Rules
Aug-21 @ 03:55 UTC (16 minutes ago) Visual Flight Rules
Wind Visibility Clouds
190° at 6 knots 10 miles
  • Broken at 5,000' AGL
  • Overcast at 7,000' AGL
Temperatures Readings
Current 23°C / 73°F
Dewpoint 23°C / 73°F
Humidity 100%
Altimeter 29.99" Hg
Pressure 1016 hPa
Elevation 51
METAR KBQP 210355Z AUTO 19006KT 10SM BKN050 OVC070 23/23 A2999 RMK AO2 LTG DSNT E THRU SW T02320229
Observed Flight Rules
Aug-21 @ 03:55 UTC
(16 minutes ago)
VFR
Wind Visibility
190° at 6 knots 10 miles
Clouds
  • Broken at 5,000' AGL
  • Overcast at 7,000' AGL
Temperature Dewpoint
23°C / 73°F 23°C / 73°F
Humidity Altimeter Pressure
100% 29.99" Hg 1016 hPa